Terminal Aerodrome Forecast
Issued by NWS Wilmington, OH

Current Version | Previous Version | Graphics & Text | Print | Product List | Glossary On
Versions: 1 2 3 4 5 6 7 8 9 10 11 12 13 14 15 16 17 18 19 20 21 22 23 24 25 26 27
000
FTUS41 KILN 220539
TAFCVG
TAF
KCVG 220539Z 2206/2312 17006KT 2SM -DZ BR OVC070
     FM220800 18005KT 3SM BR VCSH OVC015
     FM221100 18004KT 3SM BR OVC015
     FM221800 19005KT 6SM BR BKN025
     FM222000 19005KT P6SM BKN050
     FM230000 19004KT P6SM BKN025
     FM230600 20004KT P6SM BKN015=

USA.gov is the U.S. government's official web portal to all federal, state and local government web resources and services.